createdAt,value
2022-10-13T00:03:46.009Z,15.4
2022-10-13T00:08:46.239Z,15.4
2022-10-13T00:13:46.460Z,15.3
2022-10-13T00:18:46.664Z,15.4
2022-10-13T00:23:46.882Z,15.4
2022-10-13T00:28:51.993Z,15.3
2022-10-13T00:33:47.344Z,15.3
2022-10-13T00:38:47.546Z,15.4
2022-10-13T00:43:47.799Z,15.3
2022-10-13T00:48:48.028Z,15.3
2022-10-13T00:53:48.295Z,15.3
2022-10-13T00:58:48.512Z,15.2
2022-10-13T01:03:48.726Z,15.1
2022-10-13T01:08:48.969Z,15.1
2022-10-13T01:13:49.187Z,15.0
2022-10-13T01:18:49.365Z,15.0
2022-10-13T01:23:49.548Z,15.1
2022-10-13T01:28:49.907Z,14.9
2022-10-13T01:33:49.993Z,14.9
2022-10-13T01:38:50.275Z,14.9
2022-10-13T01:48:50.615Z,14.8
2022-10-13T01:53:50.800Z,14.8
2022-10-13T01:58:50.973Z,14.8
2022-10-13T02:03:51.158Z,14.8
2022-10-13T02:08:51.328Z,14.7
2022-10-13T02:18:51.717Z,14.7
2022-10-13T02:23:54.437Z,14.7
2022-10-13T02:28:52.176Z,14.6
2022-10-13T02:33:52.324Z,14.6
2022-10-13T02:38:53.116Z,14.6
2022-10-13T02:43:55.346Z,14.6
2022-10-13T02:48:52.854Z,14.6
2022-10-13T02:53:53.009Z,14.6
2022-10-13T02:58:53.223Z,14.5
2022-10-13T03:08:53.621Z,14.4
2022-10-13T03:13:53.816Z,14.4
2022-10-13T03:18:54.027Z,14.4
2022-10-13T03:28:54.449Z,14.4
2022-10-13T03:33:54.523Z,14.4
2022-10-13T03:38:57.217Z,14.3
2022-10-13T03:43:54.945Z,14.3
2022-10-13T03:48:55.092Z,14.2
2022-10-13T03:58:57.477Z,14.3
2022-10-13T04:03:55.581Z,14.2
2022-10-13T04:08:55.792Z,14.2
2022-10-13T04:13:55.912Z,14.2
2022-10-13T04:23:56.292Z,14.2
2022-10-13T04:28:56.505Z,14.2
2022-10-13T04:33:56.667Z,14.2
2022-10-13T04:38:56.819Z,14.1
2022-10-13T04:48:57.042Z,14.1
2022-10-13T05:03:57.621Z,13.9
2022-10-13T05:18:58.077Z,14.0
2022-10-13T05:23:58.215Z,14.0
2022-10-13T05:28:58.360Z,14.0
2022-10-13T05:33:58.516Z,14.0
2022-10-13T05:38:58.751Z,14.0
2022-10-13T05:44:00.846Z,14.0
2022-10-13T05:49:01.053Z,13.9
2022-10-13T05:58:59.408Z,13.9
2022-10-13T06:03:59.576Z,13.8
2022-10-13T06:08:59.753Z,13.9
2022-10-13T06:13:59.963Z,13.8
2022-10-13T06:19:00.203Z,13.9
2022-10-13T06:24:00.321Z,13.9
2022-10-13T06:29:00.632Z,13.8
2022-10-13T06:34:00.698Z,13.8
2022-10-13T06:44:01.026Z,13.8
2022-10-13T06:49:01.188Z,13.7
2022-10-13T06:54:01.369Z,13.7
2022-10-13T06:59:01.576Z,13.7
2022-10-13T07:04:01.741Z,13.6
2022-10-13T07:09:01.924Z,13.6
2022-10-13T07:19:02.301Z,13.8
2022-10-13T07:24:02.473Z,13.8
2022-10-13T07:29:04.716Z,13.9
2022-10-13T07:34:02.825Z,14.1
2022-10-13T07:39:02.992Z,14.1
2022-10-13T07:44:05.157Z,14.2
2022-10-13T07:49:03.333Z,14.3
2022-10-13T07:54:03.576Z,14.4
2022-10-13T07:59:03.733Z,14.4
2022-10-13T08:04:03.951Z,14.5
2022-10-13T08:09:04.070Z,14.5
2022-10-13T08:14:04.248Z,14.4
2022-10-13T08:19:04.465Z,14.3
2022-10-13T08:24:04.643Z,14.3
2022-10-13T08:29:21.946Z,14.4
2022-10-13T08:34:04.971Z,14.4
2022-10-13T08:39:05.162Z,14.6
2022-10-13T08:44:47.585Z,14.7
2022-10-13T08:49:05.544Z,14.8
2022-10-13T08:54:05.741Z,14.9
2022-10-13T08:59:05.957Z,15.1
2022-10-13T09:04:06.161Z,15.2
2022-10-13T09:09:08.357Z,15.3
2022-10-13T09:14:06.556Z,15.6
2022-10-13T09:19:06.940Z,15.7
2022-10-13T09:24:09.019Z,15.6
2022-10-13T09:29:07.224Z,15.7
2022-10-13T09:34:07.530Z,15.7
2022-10-13T09:39:07.723Z,15.9
2022-10-13T09:44:07.960Z,16.0
2022-10-13T09:49:10.225Z,16.3
2022-10-13T09:54:08.533Z,16.6
2022-10-13T09:59:10.773Z,16.5
2022-10-13T10:04:09.088Z,16.9
2022-10-13T10:09:09.349Z,17.2
2022-10-13T10:14:09.659Z,17.4
2022-10-13T10:24:10.310Z,17.8
2022-10-13T10:29:10.629Z,17.9
2022-10-13T10:34:14.883Z,18.1
2022-10-13T10:39:11.500Z,18.1
2022-10-13T10:44:11.662Z,18.1
2022-10-13T10:54:12.332Z,17.6
2022-10-13T10:59:12.677Z,17.4
2022-10-13T11:04:12.966Z,17.2
2022-10-13T11:09:15.549Z,17.2
2022-10-13T11:14:13.570Z,17.4
2022-10-13T11:19:13.911Z,17.1
2022-10-13T11:24:14.447Z,17.1
2022-10-13T11:29:14.548Z,17.5
2022-10-13T11:34:16.933Z,17.8
2022-10-13T11:39:15.148Z,18.1
2022-10-13T11:44:15.538Z,17.8
2022-10-13T11:49:15.811Z,17.6
2022-10-13T11:54:16.133Z,17.2
2022-10-13T11:59:16.447Z,17.0
2022-10-13T12:04:16.777Z,17.3
2022-10-13T12:09:17.027Z,17.9
2022-10-13T12:14:17.379Z,18.1
2022-10-13T12:19:17.736Z,18.1
2022-10-13T12:24:18.028Z,18.3
2022-10-13T12:29:18.407Z,18.2
2022-10-13T12:34:18.765Z,18.1
2022-10-13T12:44:21.469Z,17.7
2022-10-13T12:54:20.079Z,17.6
2022-10-13T12:59:20.431Z,17.7
2022-10-13T13:04:20.749Z,17.8
2022-10-13T13:09:21.144Z,18.2
2022-10-13T13:14:21.422Z,18.6
2022-10-13T13:19:21.758Z,18.8
2022-10-13T13:29:22.623Z,18.7
2022-10-13T13:34:24.460Z,18.4
2022-10-13T13:39:23.368Z,18.1
2022-10-13T13:44:23.589Z,18.0
2022-10-13T13:49:23.895Z,18.0
2022-10-13T13:54:24.224Z,17.7
2022-10-13T13:59:24.587Z,17.8
2022-10-13T14:04:24.855Z,18.0
2022-10-13T14:14:25.487Z,19.1
2022-10-13T14:19:25.855Z,19.1
2022-10-13T14:24:26.230Z,19.0
2022-10-13T14:29:26.603Z,18.7
2022-10-13T14:34:26.989Z,18.6
2022-10-13T14:39:27.398Z,18.6
2022-10-13T14:44:27.752Z,18.5
2022-10-13T14:49:28.099Z,18.4
2022-10-13T14:54:28.475Z,18.3
2022-10-13T14:59:28.849Z,18.2
2022-10-13T15:04:29.128Z,18.1
2022-10-13T15:09:38.977Z,18.1
2022-10-13T15:14:29.817Z,18.0
2022-10-13T15:19:30.062Z,18.0
2022-10-13T15:24:30.531Z,17.9
2022-10-13T15:29:30.696Z,18.0
2022-10-13T15:34:31.047Z,18.0
2022-10-13T15:39:31.372Z,18.0
2022-10-13T15:44:51.060Z,18.1
2022-10-13T15:49:32.097Z,18.2
2022-10-13T15:54:32.459Z,18.2
2022-10-13T15:59:32.756Z,17.9
2022-10-13T16:04:37.264Z,17.9
2022-10-13T16:09:33.425Z,18.0
2022-10-13T16:14:35.902Z,18.1
2022-10-13T16:19:34.096Z,17.9
2022-10-13T16:24:34.586Z,17.9
2022-10-13T16:29:34.907Z,17.9
2022-10-13T16:39:39.916Z,17.6
2022-10-13T16:44:35.861Z,17.4
2022-10-13T17:04:37.061Z,16.7
2022-10-13T17:14:41.085Z,16.2
2022-10-13T17:19:37.982Z,16.0
2022-10-13T17:24:38.160Z,15.8
2022-10-13T17:29:38.453Z,15.5
2022-10-13T17:34:38.755Z,15.2
2022-10-13T17:39:39.007Z,15.2
2022-10-13T17:44:39.264Z,15.0
2022-10-13T17:49:39.504Z,14.9
2022-10-13T17:54:41.730Z,14.7
2022-10-13T17:59:39.818Z,14.6
2022-10-13T18:04:40.032Z,14.6
2022-10-13T18:09:40.274Z,14.4
2022-10-13T18:14:42.513Z,14.4
2022-10-13T18:19:40.713Z,14.4
2022-10-13T18:24:40.869Z,14.4
2022-10-13T18:29:41.073Z,14.4
2022-10-13T18:34:41.312Z,14.2
2022-10-13T18:39:45.435Z,14.1
2022-10-13T18:44:41.735Z,13.9
2022-10-13T18:49:41.886Z,13.8
2022-10-13T18:54:42.075Z,13.8
2022-10-13T18:59:42.151Z,13.6
2022-10-13T19:04:42.219Z,13.6
2022-10-13T19:09:44.400Z,13.5
2022-10-13T19:14:42.462Z,13.3
2022-10-13T19:24:46.748Z,13.2
2022-10-13T19:29:42.894Z,13.2
2022-10-13T19:34:43.039Z,13.1
2022-10-13T19:39:43.194Z,13.1
2022-10-13T19:44:43.322Z,13.0
2022-10-13T19:49:43.499Z,12.8
2022-10-13T19:54:43.602Z,12.7
2022-10-13T19:59:47.508Z,12.6
2022-10-13T20:04:43.956Z,12.6
2022-10-13T20:09:44.135Z,12.5
2022-10-13T20:14:44.303Z,12.5
2022-10-13T20:19:44.481Z,12.4
2022-10-13T20:24:44.519Z,12.4
2022-10-13T20:29:44.670Z,12.3
2022-10-13T20:34:46.762Z,12.3
2022-10-13T20:39:44.868Z,12.4
2022-10-13T20:44:44.960Z,12.4
2022-10-13T20:49:45.129Z,12.3
2022-10-13T20:54:47.748Z,12.3
2022-10-13T20:59:45.346Z,12.3
2022-10-13T21:04:45.439Z,12.2
2022-10-13T21:09:52.769Z,12.1
2022-10-13T21:14:47.663Z,12.1
2022-10-13T21:19:45.852Z,12.0
2022-10-13T21:24:47.888Z,11.9
2022-10-13T21:29:45.988Z,11.8
2022-10-13T21:34:46.104Z,11.8
2022-10-13T21:39:46.210Z,11.7
2022-10-13T21:44:46.327Z,11.6
2022-10-13T21:49:46.428Z,11.6
2022-10-13T21:54:46.496Z,11.4
2022-10-13T21:59:46.547Z,11.4
2022-10-13T22:04:46.681Z,11.4
2022-10-13T22:09:46.749Z,11.3
2022-10-13T22:14:46.816Z,11.3
2022-10-13T22:19:46.947Z,11.3
2022-10-13T22:24:46.959Z,11.4
2022-10-13T22:29:47.100Z,11.4
2022-10-13T22:34:47.166Z,11.5
2022-10-13T22:39:47.253Z,11.4
2022-10-13T22:44:47.369Z,11.4
2022-10-13T22:49:47.441Z,11.2
2022-10-13T22:54:47.545Z,11.3
2022-10-13T22:59:47.594Z,11.3
2022-10-13T23:04:47.691Z,11.2
2022-10-13T23:09:50.285Z,11.2
2022-10-13T23:14:47.820Z,11.1
2022-10-13T23:19:47.884Z,11.1
2022-10-13T23:24:47.966Z,11.1
2022-10-13T23:29:48.052Z,11.1
2022-10-13T23:34:48.111Z,11.1
2022-10-13T23:39:48.311Z,11.0
2022-10-13T23:44:48.334Z,11.0
2022-10-13T23:49:48.392Z,10.8
2022-10-13T23:54:51.047Z,10.8
2022-10-13T23:59:51.039Z,10.8
